Time;durP1;ratioP1;P1;durP2;ratioP2;P2;SDS_P1;SDS_P2;PMS_P1;PMS_P2;Temp;Humidity;BMP_temperature;BMP_pressure;BME280_temperature;BME280_humidity;BME280_pressure;Samples;Min_cycle;Max_cycle;Signal;HPM_P1;HPM_P2
2023/03/21 00:00:47;;;;;;;16.47;14.77;;;8.30;99.90;;;;;;4983361;28;20500;-75
2023/03/21 00:03:15;;;;;;;15.40;13.80;;;8.30;99.90;;;;;;4979290;28;20508;-73
2023/03/21 00:05:48;;;;;;;16.60;14.90;;;8.30;99.90;;;;;;4987894;28;20492;-75
2023/03/21 00:08:16;;;;;;;16.17;14.60;;;8.30;99.90;;;;;;4983297;28;20520;-73
2023/03/21 00:10:44;;;;;;;16.87;15.17;;;8.30;99.90;;;;;;4985126;28;20922;-74
2023/03/21 00:13:13;;;;;;;18.33;16.43;;;8.20;99.90;;;;;;4978529;28;20501;-74
2023/03/21 00:15:49;;;;;;;17.47;15.40;;;8.20;99.90;;;;;;4978466;28;20843;-74
2023/03/21 00:18:40;;;;;;;16.90;15.20;;;8.20;99.90;;;;;;4973520;28;20976;-75
2023/03/21 00:21:14;;;;;;;18.47;16.20;;;8.30;99.90;;;;;;4983252;28;20491;-73
2023/03/21 00:24:02;;;;;;;18.07;16.17;;;8.20;99.90;;;;;;4984818;28;20486;-75
2023/03/21 00:26:30;;;;;;;18.40;16.50;;;8.20;99.90;;;;;;4984726;28;20487;-74
2023/03/21 00:28:58;;;;;;;18.60;16.60;;;8.20;99.90;;;;;;4981248;28;20492;-74
2023/03/21 00:31:26;;;;;;;19.13;16.77;;;8.20;99.90;;;;;;4979677;28;20469;-72
2023/03/21 00:33:54;;;;;;;19.30;17.03;;;8.20;99.90;;;;;;4984042;28;20845;-74
2023/03/21 00:36:24;;;;;;;18.23;16.33;;;8.20;99.90;;;;;;4982594;28;20480;-73
2023/03/21 00:38:53;;;;;;;17.63;15.73;;;8.20;99.90;;;;;;4985261;28;20596;-75
2023/03/21 00:41:21;;;;;;;18.07;15.93;;;8.20;99.90;;;;;;4983356;28;20497;-73
2023/03/21 00:44:08;;;;;;;19.63;17.43;;;8.20;99.90;;;;;;4963617;28;20493;-74
2023/03/21 00:46:36;;;;;;;18.73;16.73;;;8.20;99.90;;;;;;4966503;28;20561;-74
2023/03/21 00:49:13;;;;;;;18.80;16.23;;;8.20;99.90;;;;;;4958548;28;20494;-74
2023/03/21 00:51:43;;;;;;;20.87;17.40;;;8.20;99.90;;;;;;4965593;28;20462;-74
2023/03/21 00:54:12;;;;;;;21.50;17.70;;;8.20;99.90;;;;;;4987329;28;20476;-74
2023/03/21 00:56:40;;;;;;;20.90;18.13;;;8.20;99.90;;;;;;4986600;28;20481;-75
2023/03/21 00:59:08;;;;;;;20.20;17.50;;;8.10;99.90;;;;;;4988288;28;20520;-74
2023/03/21 01:01:36;;;;;;;20.27;18.07;;;8.20;99.90;;;;;;4988725;28;20492;-72
2023/03/21 01:04:09;;;;;;;19.80;17.40;;;8.20;99.90;;;;;;4987247;28;20468;-73
2023/03/21 01:06:38;;;;;;;21.40;18.90;;;8.20;99.90;;;;;;4990451;28;20534;-74
2023/03/21 01:09:11;;;;;;;19.80;17.60;;;8.20;99.90;;;;;;4991939;28;20531;-74
2023/03/21 01:11:40;;;;;;;21.67;18.63;;;8.20;99.90;;;;;;4991335;28;20469;-73
2023/03/21 01:14:09;;;;;;;22.33;18.63;;;8.20;99.90;;;;;;4992285;28;20469;-74
2023/03/21 01:16:50;;;;;;;20.30;18.10;;;8.20;99.90;;;;;;4993093;28;20539;-74
2023/03/21 01:19:20;;;;;;;20.73;18.53;;;8.20;99.90;;;;;;4987271;28;20491;-74
2023/03/21 01:21:58;;;;;;;22.67;18.80;;;8.20;99.90;;;;;;4993241;28;20990;-74
2023/03/21 01:24:27;;;;;;;22.70;19.03;;;8.20;99.90;;;;;;4992278;28;20469;-73
2023/03/21 01:26:55;;;;;;;23.07;20.50;;;8.20;99.90;;;;;;4991154;28;20473;-74
2023/03/21 01:29:23;;;;;;;23.57;19.63;;;8.20;99.90;;;;;;4988309;28;20488;-74
2023/03/21 01:31:51;;;;;;;25.57;21.17;;;8.20;99.90;;;;;;4981422;28;21200;-73
2023/03/21 01:34:19;;;;;;;22.47;19.60;;;8.20;99.90;;;;;;4983401;28;20469;-73
2023/03/21 01:36:48;;;;;;;23.47;20.10;;;8.20;99.90;;;;;;4986368;28;20841;-73
2023/03/21 01:39:16;;;;;;;22.10;19.20;;;8.20;99.90;;;;;;4983187;28;20496;-74
2023/03/21 01:41:45;;;;;;;23.93;20.40;;;8.20;99.90;;;;;;4981335;28;21261;-74
2023/03/21 01:44:17;;;;;;;23.07;20.10;;;8.20;99.90;;;;;;4984173;28;20564;-74
2023/03/21 01:46:48;;;;;;;24.73;21.50;;;8.20;99.90;;;;;;4985651;28;20870;-75
2023/03/21 01:49:37;;;;;;;22.77;19.70;;;8.20;99.90;;;;;;4984919;28;20555;-74
2023/03/21 01:52:10;;;;;;;24.53;20.87;;;8.30;99.90;;;;;;4990788;28;20469;-73
2023/03/21 01:54:53;;;;;;;24.67;20.57;;;8.30;99.90;;;;;;4983635;28;20504;-74
2023/03/21 01:57:31;;;;;;;25.77;21.90;;;8.30;99.90;;;;;;4990853;28;20481;-74
2023/03/21 02:00:11;;;;;;;24.17;21.17;;;8.20;99.90;;;;;;4980902;28;20492;-72
2023/03/21 02:02:49;;;;;;;25.87;21.40;;;8.30;99.90;;;;;;4986642;28;20489;-75
2023/03/21 02:05:22;;;;;;;26.17;21.27;;;8.30;99.90;;;;;;4983471;28;20473;-73
2023/03/21 02:07:52;;;;;;;24.03;20.33;;;8.30;99.90;;;;;;4983214;28;20473;-71
2023/03/21 02:10:21;;;;;;;23.97;20.30;;;8.30;99.90;;;;;;4984779;28;20535;-74
2023/03/21 02:12:53;;;;;;;26.97;22.27;;;8.30;99.90;;;;;;4986030;28;20485;-73
2023/03/21 02:15:25;;;;;;;25.83;21.20;;;8.30;99.90;;;;;;4981983;28;20476;-75
2023/03/21 02:17:58;;;;;;;25.60;20.93;;;8.30;99.90;;;;;;4989161;28;20477;-75
2023/03/21 02:21:02;;;;;;;26.50;22.60;;;8.30;99.90;;;;;;4986451;28;20496;-73
2023/03/21 02:24:06;;;;;;;26.37;21.53;;;8.30;99.90;;;;;;4919687;28;20870;-75
2023/03/21 02:27:03;;;;;;;26.33;20.97;;;8.30;99.90;;;;;;4983685;28;20477;-73
2023/03/21 02:30:15;;;;;;;26.07;21.30;;;8.30;99.90;;;;;;4988178;28;20554;-73
2023/03/21 02:33:19;;;;;;;27.50;22.23;;;8.30;99.90;;;;;;4986939;28;20944;-75
2023/03/21 02:35:58;;;;;;;26.87;22.50;;;8.30;99.90;;;;;;4977495;28;20554;-75
2023/03/21 02:38:47;;;;;;;27.03;21.23;;;8.30;99.90;;;;;;4984530;28;20497;-74
2023/03/21 02:41:19;;;;;;;25.63;21.80;;;8.30;99.90;;;;;;4987224;28;20978;-74
2023/03/21 02:43:55;;;;;;;25.17;21.40;;;8.30;99.90;;;;;;4984414;28;20489;-74
2023/03/21 02:46:29;;;;;;;25.93;21.50;;;8.30;99.90;;;;;;4983117;28;20479;-74
2023/03/21 02:49:14;;;;;;;25.60;21.97;;;8.30;99.90;;;;;;4982553;28;20502;-73
2023/03/21 02:51:45;;;;;;;26.40;22.00;;;8.30;99.90;;;;;;4984739;28;21228;-74
2023/03/21 02:54:18;;;;;;;27.03;22.40;;;8.30;99.90;;;;;;4974161;28;20469;-73
2023/03/21 02:57:07;;;;;;;27.80;23.07;;;8.30;99.90;;;;;;4983924;28;23317;-74
2023/03/21 02:59:36;;;;;;;26.80;22.30;;;8.30;99.90;;;;;;4987162;28;20493;-73
2023/03/21 03:02:23;;;;;;;27.33;23.20;;;8.30;99.90;;;;;;4979158;28;21021;-73
2023/03/21 03:04:51;;;;;;;27.03;22.17;;;8.30;99.90;;;;;;4987168;28;20469;-74
2023/03/21 03:07:34;;;;;;;27.00;22.70;;;8.30;99.90;;;;;;4986667;28;20473;-73
2023/03/21 03:10:23;;;;;;;28.13;22.83;;;8.30;99.90;;;;;;4987221;28;20491;-74
2023/03/21 03:13:02;;;;;;;27.93;22.83;;;8.30;99.90;;;;;;4981841;28;20499;-74
2023/03/21 03:15:44;;;;;;;28.87;24.80;;;8.30;99.90;;;;;;4991733;28;21020;-74
2023/03/21 03:18:24;;;;;;;29.17;23.80;;;8.30;99.90;;;;;;4990899;28;20508;-74
2023/03/21 03:21:02;;;;;;;29.33;23.93;;;8.40;99.90;;;;;;4987683;28;20694;-75
2023/03/21 03:23:35;;;;;;;30.93;24.40;;;8.40;99.90;;;;;;4986813;28;20488;-75
2023/03/21 03:26:09;;;;;;;28.23;23.70;;;8.40;99.90;;;;;;4990831;28;20504;-75
2023/03/21 03:28:39;;;;;;;28.70;23.17;;;8.40;99.90;;;;;;4985894;28;20465;-75
2023/03/21 03:31:13;;;;;;;29.57;24.80;;;8.40;99.90;;;;;;4985185;28;20476;-74
2023/03/21 03:33:45;;;;;;;27.00;23.53;;;8.40;99.90;;;;;;4985722;28;20511;-73
2023/03/21 03:36:16;;;;;;;28.53;23.70;;;8.40;99.90;;;;;;4989102;28;20481;-74
2023/03/21 03:39:04;;;;;;;29.47;24.57;;;8.40;99.90;;;;;;4985839;28;20588;-75
2023/03/21 03:41:40;;;;;;;31.67;24.70;;;8.40;99.90;;;;;;4985977;28;20515;-74
2023/03/21 03:44:28;;;;;;;29.17;23.33;;;8.40;99.90;;;;;;4967499;28;20540;-74
2023/03/21 03:46:59;;;;;;;29.07;24.47;;;8.40;99.90;;;;;;4965389;28;20493;-76
2023/03/21 03:49:31;;;;;;;30.60;24.20;;;8.40;99.90;;;;;;4964737;28;20520;-72
2023/03/21 03:52:03;;;;;;;27.80;22.53;;;8.40;99.90;;;;;;4969401;28;20473;-75
2023/03/21 03:54:33;;;;;;;30.00;23.33;;;8.40;99.90;;;;;;4968955;28;20466;-74
2023/03/21 03:57:03;;;;;;;30.90;25.47;;;8.40;99.90;;;;;;4966387;28;20485;-75
2023/03/21 03:59:34;;;;;;;30.30;25.33;;;8.40;99.90;;;;;;4967402;28;20879;-74
2023/03/21 04:02:03;;;;;;;32.40;27.00;;;8.50;99.90;;;;;;4972423;28;20491;-74
2023/03/21 04:04:31;;;;;;;36.00;27.60;;;8.50;99.90;;;;;;4987011;28;20869;-73
2023/03/21 04:06:59;;;;;;;37.53;28.63;;;8.50;99.90;;;;;;4985539;28;20512;-74
2023/03/21 04:09:27;;;;;;;33.83;27.10;;;8.50;99.90;;;;;;4986026;28;20561;-75
2023/03/21 04:12:11;;;;;;;33.73;27.40;;;8.50;99.90;;;;;;4985239;28;20501;-73
2023/03/21 04:14:40;;;;;;;36.40;27.90;;;8.50;99.90;;;;;;4983443;28;20985;-75
2023/03/21 04:17:14;;;;;;;37.80;29.63;;;8.50;99.90;;;;;;4986755;28;20922;-74
2023/03/21 04:19:42;;;;;;;37.63;29.80;;;8.50;99.90;;;;;;4983491;28;20840;-73
2023/03/21 04:22:10;;;;;;;38.90;30.10;;;8.50;99.90;;;;;;4988160;28;20487;-72
2023/03/21 04:24:38;;;;;;;34.77;28.60;;;8.50;99.90;;;;;;4987371;28;20528;-74
2023/03/21 04:27:06;;;;;;;37.27;28.60;;;8.50;99.90;;;;;;4985745;28;20477;-73
2023/03/21 04:29:52;;;;;;;40.50;30.40;;;8.50;99.90;;;;;;4985168;28;20489;-74
2023/03/21 04:32:24;;;;;;;38.43;30.47;;;8.50;99.90;;;;;;4980999;28;20527;-74
2023/03/21 04:34:53;;;;;;;36.07;28.97;;;8.50;99.90;;;;;;4990080;28;20480;-75
2023/03/21 04:37:22;;;;;;;38.00;30.10;;;8.50;99.90;;;;;;4991089;28;20479;-75
2023/03/21 04:39:51;;;;;;;37.43;29.27;;;8.60;99.90;;;;;;4987918;28;20893;-76
2023/03/21 04:42:19;;;;;;;37.80;29.40;;;8.60;99.90;;;;;;4992426;28;20511;-73
2023/03/21 04:44:47;;;;;;;36.70;28.47;;;8.60;99.90;;;;;;4989219;28;20489;-72
2023/03/21 04:47:19;;;;;;;37.40;29.83;;;8.60;99.90;;;;;;4991191;28;20485;-74
2023/03/21 04:49:47;;;;;;;39.27;31.10;;;8.60;99.90;;;;;;4982215;28;20493;-73
2023/03/21 04:52:16;;;;;;;39.43;29.70;;;8.60;99.90;;;;;;4982369;28;20491;-75
2023/03/21 04:54:43;;;;;;;36.90;28.07;;;8.60;99.90;;;;;;4986744;28;20457;-76
2023/03/21 04:57:12;;;;;;;34.73;29.03;;;8.60;99.90;;;;;;4987240;28;20873;-74
2023/03/21 04:59:40;;;;;;;37.03;29.43;;;8.60;99.90;;;;;;4983656;28;20501;-74
2023/03/21 05:02:08;;;;;;;36.00;29.93;;;8.60;99.90;;;;;;4987428;28;20493;-74
2023/03/21 05:04:38;;;;;;;33.43;27.37;;;8.60;99.90;;;;;;4992210;28;20504;-73
2023/03/21 05:07:06;;;;;;;32.70;26.83;;;8.60;99.90;;;;;;4984470;28;20495;-74
2023/03/21 05:09:34;;;;;;;34.43;27.50;;;8.70;99.90;;;;;;4988785;28;20493;-74
2023/03/21 05:12:03;;;;;;;35.73;28.63;;;8.70;99.90;;;;;;4978396;28;21021;-75
2023/03/21 05:14:31;;;;;;;32.50;27.60;;;8.70;99.90;;;;;;4979200;28;20476;-75
2023/03/21 05:17:03;;;;;;;35.00;27.37;;;8.70;99.90;;;;;;4986731;28;20468;-76
2023/03/21 05:19:34;;;;;;;32.07;26.13;;;8.70;99.90;;;;;;4980181;28;22282;-75
2023/03/21 05:22:06;;;;;;;32.13;25.67;;;8.70;99.90;;;;;;4984015;28;20469;-75
2023/03/21 05:24:36;;;;;;;32.77;26.33;;;8.60;99.90;;;;;;4983469;28;20488;-75
2023/03/21 05:27:04;;;;;;;33.37;28.57;;;8.70;99.90;;;;;;4982150;28;20469;-73
2023/03/21 05:29:33;;;;;;;32.43;27.20;;;8.70;99.90;;;;;;4982273;28;20493;-74
2023/03/21 05:32:01;;;;;;;32.70;27.10;;;8.70;99.90;;;;;;4977923;28;20472;-72
2023/03/21 05:34:30;;;;;;;36.53;28.57;;;8.70;99.90;;;;;;4977166;28;20480;-74
2023/03/21 05:36:59;;;;;;;32.37;26.20;;;8.70;99.90;;;;;;4977139;28;20488;-73
2023/03/21 05:39:28;;;;;;;30.37;25.17;;;8.70;99.90;;;;;;4972574;28;20520;-73
2023/03/21 05:41:56;;;;;;;29.87;25.33;;;8.70;99.90;;;;;;4976166;28;21098;-74
2023/03/21 05:44:24;;;;;;;31.40;25.93;;;8.70;99.90;;;;;;4970314;28;20519;-73
2023/03/21 05:46:52;;;;;;;27.70;24.17;;;8.70;99.90;;;;;;4974815;28;20548;-74
2023/03/21 05:49:21;;;;;;;29.63;24.40;;;8.70;99.90;;;;;;4976922;28;20497;-73
2023/03/21 05:51:49;;;;;;;29.73;26.40;;;8.70;99.90;;;;;;4975016;28;20545;-75
2023/03/21 05:54:17;;;;;;;31.87;26.53;;;8.70;99.90;;;;;;4974241;28;20465;-75
2023/03/21 05:56:47;;;;;;;32.43;27.50;;;8.70;99.90;;;;;;4977473;28;20473;-72
2023/03/21 05:59:15;;;;;;;34.63;27.53;;;8.70;99.90;;;;;;4971825;28;20489;-71
2023/03/21 06:01:43;;;;;;;33.20;26.70;;;8.80;99.90;;;;;;4972985;28;20476;-74
2023/03/21 06:04:11;;;;;;;34.47;28.80;;;8.80;99.90;;;;;;4977475;28;20651;-74
2023/03/21 06:06:39;;;;;;;32.97;27.40;;;8.80;99.90;;;;;;4979486;28;20476;-74
2023/03/21 06:09:07;;;;;;;31.50;26.43;;;8.80;99.90;;;;;;4977617;28;20605;-72
2023/03/21 06:11:38;;;;;;;31.47;26.50;;;8.80;99.90;;;;;;4976299;28;20916;-73
2023/03/21 06:14:09;;;;;;;32.27;28.07;;;8.80;99.90;;;;;;4976926;28;20473;-72
2023/03/21 06:16:37;;;;;;;33.03;27.40;;;8.80;99.90;;;;;;4974935;28;20951;-72
2023/03/21 06:19:05;;;;;;;31.73;26.27;;;8.80;99.90;;;;;;4975869;28;20496;-74
2023/03/21 06:21:33;;;;;;;31.33;26.03;;;8.80;99.90;;;;;;4973633;28;20933;-73
2023/03/21 06:24:02;;;;;;;29.93;25.53;;;8.80;99.90;;;;;;4971052;28;20481;-73
2023/03/21 06:26:30;;;;;;;32.80;27.43;;;8.80;99.90;;;;;;4970662;28;20476;-74
2023/03/21 06:28:58;;;;;;;34.00;27.27;;;8.90;99.90;;;;;;4982729;28;20497;-75
2023/03/21 06:31:28;;;;;;;28.50;25.00;;;8.80;99.90;;;;;;4981626;28;20474;-73
2023/03/21 06:33:56;;;;;;;29.57;25.57;;;8.80;99.90;;;;;;4979402;28;22525;-74
2023/03/21 06:36:24;;;;;;;31.80;26.13;;;8.80;99.90;;;;;;4988703;28;20469;-74
2023/03/21 06:38:52;;;;;;;29.80;25.60;;;8.80;99.90;;;;;;4990536;28;20994;-75
2023/03/21 06:41:20;;;;;;;30.20;26.10;;;8.80;99.90;;;;;;4987985;28;20469;-75
2023/03/21 06:43:48;;;;;;;28.43;24.73;;;8.80;99.90;;;;;;4973962;28;20489;-73
2023/03/21 06:46:16;;;;;;;31.47;25.97;;;8.80;99.90;;;;;;4977433;28;20596;-76
2023/03/21 06:48:46;;;;;;;29.33;25.73;;;8.80;99.90;;;;;;4976913;28;20568;-73
2023/03/21 06:51:15;;;;;;;29.73;25.33;;;8.80;99.90;;;;;;4986604;28;20484;-74
2023/03/21 06:53:43;;;;;;;31.90;25.97;;;8.80;99.90;;;;;;4987874;28;20500;-74
2023/03/21 06:56:12;;;;;;;32.23;27.73;;;8.80;99.90;;;;;;4990291;28;20967;-75
2023/03/21 06:58:41;;;;;;;31.53;26.53;;;8.80;99.90;;;;;;4985870;28;20930;-75
2023/03/21 07:01:09;;;;;;;33.00;28.20;;;8.80;99.90;;;;;;4987144;28;20473;-74
2023/03/21 07:03:38;;;;;;;32.40;27.83;;;8.90;99.90;;;;;;4989184;28;20521;-74
2023/03/21 07:06:10;;;;;;;32.53;27.77;;;8.90;99.90;;;;;;4985376;28;20521;-74
2023/03/21 07:08:39;;;;;;;33.17;27.93;;;8.90;99.90;;;;;;4987313;28;20481;-74
2023/03/21 07:11:08;;;;;;;31.50;27.37;;;8.90;99.90;;;;;;4987198;28;20465;-75
2023/03/21 07:13:36;;;;;;;31.23;26.93;;;8.90;99.90;;;;;;4988029;28;20489;-75
2023/03/21 07:16:05;;;;;;;30.53;26.07;;;8.90;99.90;;;;;;4991275;28;20466;-74
2023/03/21 07:18:33;;;;;;;30.07;26.70;;;8.90;99.90;;;;;;4991124;28;20499;-75
2023/03/21 07:21:01;;;;;;;30.50;26.80;;;8.90;99.90;;;;;;4989853;28;20471;-75
2023/03/21 07:23:31;;;;;;;33.17;27.13;;;8.90;99.90;;;;;;4988954;28;20477;-75
2023/03/21 07:25:59;;;;;;;33.20;28.10;;;8.90;99.90;;;;;;4990227;28;20492;-75
2023/03/21 07:28:29;;;;;;;34.33;27.67;;;8.90;99.90;;;;;;4990351;28;21013;-75
2023/03/21 07:31:00;;;;;;;32.03;27.33;;;9.00;99.90;;;;;;4989328;28;20465;-74
2023/03/21 07:33:28;;;;;;;32.17;28.17;;;9.00;99.90;;;;;;4989690;28;20540;-73
2023/03/21 07:35:57;;;;;;;33.30;28.80;;;9.00;99.90;;;;;;4990057;28;20465;-74
2023/03/21 07:38:26;;;;;;;32.37;27.90;;;9.00;99.90;;;;;;4988134;28;20477;-75
2023/03/21 07:40:55;;;;;;;33.00;28.20;;;9.00;99.90;;;;;;4990079;28;20469;-75
2023/03/21 07:43:23;;;;;;;34.57;28.80;;;9.10;99.90;;;;;;4985350;28;20485;-75
2023/03/21 07:45:51;;;;;;;32.77;29.20;;;9.10;99.90;;;;;;4987892;28;20871;-75
2023/03/21 07:48:19;;;;;;;33.80;29.17;;;9.10;99.90;;;;;;4986191;28;20465;-76
2023/03/21 07:50:49;;;;;;;31.97;27.97;;;9.10;99.90;;;;;;4987273;28;20484;-75
2023/03/21 07:53:17;;;;;;;34.70;29.63;;;9.10;99.90;;;;;;4985673;28;20568;-76
2023/03/21 07:55:49;;;;;;;34.10;29.77;;;9.20;99.90;;;;;;4987441;28;20849;-74
2023/03/21 07:58:18;;;;;;;33.60;28.53;;;9.20;99.90;;;;;;4986607;28;21004;-75
2023/03/21 08:00:46;;;;;;;32.77;28.10;;;9.20;99.90;;;;;;4987462;28;21039;-75
2023/03/21 08:03:14;;;;;;;39.67;30.97;;;9.20;99.90;;;;;;4985137;28;20493;-75
2023/03/21 08:05:43;;;;;;;33.80;29.43;;;9.20;99.90;;;;;;4988877;28;20499;-74
2023/03/21 08:08:11;;;;;;;36.67;29.80;;;9.20;99.90;;;;;;4977130;28;20567;-76
2023/03/21 08:10:39;;;;;;;36.07;29.67;;;9.20;99.90;;;;;;4986509;28;20499;-75
2023/03/21 08:13:07;;;;;;;35.97;30.67;;;9.20;99.90;;;;;;4982098;28;20493;-74
2023/03/21 08:15:38;;;;;;;34.60;29.93;;;9.30;99.90;;;;;;4982196;28;20474;-75
2023/03/21 08:18:06;;;;;;;36.10;29.90;;;9.20;99.90;;;;;;4986529;28;20531;-75
2023/03/21 08:20:34;;;;;;;35.97;29.37;;;9.20;99.90;;;;;;4985868;28;21025;-74
2023/03/21 08:23:02;;;;;;;38.13;29.60;;;9.20;99.90;;;;;;4985975;28;21018;-74
2023/03/21 08:25:31;;;;;;;36.10;29.73;;;9.30;99.90;;;;;;4986754;28;20540;-76
2023/03/21 08:27:59;;;;;;;39.40;28.90;;;9.30;99.90;;;;;;4987152;28;20556;-75
2023/03/21 08:30:29;;;;;;;38.77;31.57;;;9.30;99.90;;;;;;4986329;28;20872;-75
2023/03/21 08:33:00;;;;;;;35.93;29.23;;;9.30;99.90;;;;;;4985749;28;20489;-76
2023/03/21 08:35:30;;;;;;;36.67;29.07;;;9.30;99.90;;;;;;4986401;28;20501;-76
2023/03/21 08:37:58;;;;;;;37.90;29.77;;;9.30;99.90;;;;;;4985681;28;20500;-75
2023/03/21 08:40:26;;;;;;;34.33;28.70;;;9.40;99.90;;;;;;4987890;28;20501;-75
2023/03/21 08:42:54;;;;;;;35.93;29.03;;;9.40;99.90;;;;;;4987597;28;20477;-75
2023/03/21 08:45:22;;;;;;;37.80;29.53;;;9.40;99.90;;;;;;4983583;28;20476;-75
2023/03/21 08:47:50;;;;;;;36.37;29.67;;;9.40;99.90;;;;;;4987565;28;20500;-74
2023/03/21 08:50:22;;;;;;;35.70;28.37;;;9.40;99.90;;;;;;4986259;28;20579;-73
2023/03/21 08:52:50;;;;;;;36.40;29.63;;;9.40;99.90;;;;;;4987946;28;20480;-73
2023/03/21 08:55:19;;;;;;;34.00;28.70;;;9.40;99.90;;;;;;4985806;28;20480;-75
2023/03/21 08:57:47;;;;;;;31.53;26.23;;;9.40;99.90;;;;;;4986334;28;21049;-74
2023/03/21 09:00:19;;;;;;;36.57;28.57;;;9.40;99.90;;;;;;4986271;28;20499;-75
2023/03/21 09:02:50;;;;;;;32.70;28.03;;;9.50;99.90;;;;;;4984353;28;20492;-75
2023/03/21 09:05:20;;;;;;;31.63;27.50;;;9.50;99.90;;;;;;4984714;28;21037;-74
2023/03/21 09:07:49;;;;;;;33.10;28.30;;;9.50;99.90;;;;;;4985615;28;20504;-74
2023/03/21 09:10:20;;;;;;;34.43;30.07;;;9.50;99.90;;;;;;4987557;28;20496;-76
2023/03/21 09:12:51;;;;;;;34.63;29.60;;;9.50;99.90;;;;;;4988369;28;21002;-75
2023/03/21 09:15:20;;;;;;;36.30;29.37;;;9.50;99.90;;;;;;4989215;28;20473;-74
2023/03/21 09:17:51;;;;;;;33.20;28.00;;;9.50;99.90;;;;;;4987891;28;20970;-75
2023/03/21 09:20:29;;;;;;;35.57;29.13;;;9.50;99.90;;;;;;4991149;28;21010;-75
2023/03/21 09:22:57;;;;;;;37.57;29.00;;;9.60;99.90;;;;;;4990956;28;20476;-74
2023/03/21 09:25:29;;;;;;;34.47;28.00;;;9.60;99.90;;;;;;4989061;28;20476;-75
2023/03/21 09:27:58;;;;;;;34.87;27.77;;;9.60;99.90;;;;;;4988585;28;20592;-74
2023/03/21 09:30:27;;;;;;;32.63;28.07;;;9.60;99.90;;;;;;4989612;28;20495;-74
2023/03/21 09:32:55;;;;;;;33.90;27.53;;;9.60;99.90;;;;;;4990752;28;20493;-73
2023/03/21 09:35:25;;;;;;;35.77;28.60;;;9.60;99.90;;;;;;4989834;28;20974;-74
2023/03/21 09:37:56;;;;;;;33.00;27.37;;;9.70;99.90;;;;;;4985047;28;20928;-74
2023/03/21 09:40:40;;;;;;;32.70;27.50;;;9.70;99.90;;;;;;4987446;28;21033;-75
2023/03/21 09:43:19;;;;;;;34.13;27.87;;;9.70;99.90;;;;;;4987155;28;21055;-75
2023/03/21 09:45:52;;;;;;;35.77;28.17;;;9.70;99.90;;;;;;4988800;28;20476;-75
2023/03/21 09:48:32;;;;;;;33.40;27.80;;;9.70;99.90;;;;;;4989136;28;20479;-74
2023/03/21 09:51:04;;;;;;;36.93;28.43;;;9.80;99.90;;;;;;4987823;28;20481;-73
2023/03/21 09:53:36;;;;;;;34.87;27.80;;;9.80;99.90;;;;;;4987316;28;21174;-73
2023/03/21 09:56:05;;;;;;;36.37;29.50;;;9.90;99.90;;;;;;4988045;28;20487;-74
2023/03/21 09:58:38;;;;;;;34.13;27.83;;;9.90;99.90;;;;;;4989801;28;20473;-74
2023/03/21 10:01:28;;;;;;;36.23;27.33;;;9.90;99.90;;;;;;4989120;28;20461;-74
2023/03/21 10:03:59;;;;;;;34.10;28.60;;;9.90;99.90;;;;;;4988300;28;20483;-76
2023/03/21 10:06:30;;;;;;;33.80;25.83;;;9.90;99.90;;;;;;4988017;28;20517;-74
2023/03/21 10:09:05;;;;;;;32.07;26.50;;;9.90;99.90;;;;;;4987624;28;21017;-74
2023/03/21 10:11:40;;;;;;;31.70;27.07;;;10.00;99.90;;;;;;4987990;28;21019;-74
2023/03/21 10:14:18;;;;;;;32.17;26.50;;;10.00;99.90;;;;;;4986914;28;20481;-75
2023/03/21 10:16:49;;;;;;;31.47;24.70;;;10.00;99.90;;;;;;4984083;28;20464;-74
2023/03/21 10:19:19;;;;;;;29.90;25.73;;;10.00;99.90;;;;;;4985798;28;20496;-75
2023/03/21 10:21:50;;;;;;;29.30;24.27;;;10.00;99.90;;;;;;4986810;28;20469;-76
2023/03/21 10:24:29;;;;;;;29.27;23.83;;;10.00;99.90;;;;;;4986880;28;20473;-75
2023/03/21 10:26:57;;;;;;;27.73;23.67;;;10.10;99.90;;;;;;4988556;28;20508;-75
2023/03/21 10:29:30;;;;;;;28.43;24.17;;;10.10;99.90;;;;;;4988393;28;20497;-74
2023/03/21 10:31:58;;;;;;;31.57;24.40;;;10.00;99.90;;;;;;4987851;28;21032;-74
2023/03/21 10:34:32;;;;;;;28.40;23.37;;;10.10;99.90;;;;;;4989656;28;20480;-73
2023/03/21 10:37:03;;;;;;;30.37;25.27;;;10.10;99.90;;;;;;4983162;28;20480;-73
2023/03/21 10:39:35;;;;;;;29.57;23.90;;;10.10;99.90;;;;;;4990295;28;20496;-73
2023/03/21 10:42:03;;;;;;;27.67;22.47;;;10.10;99.90;;;;;;4987914;28;20481;-73
2023/03/21 10:44:32;;;;;;;26.00;22.47;;;10.20;99.90;;;;;;4986487;28;20499;-73
2023/03/21 10:47:05;;;;;;;25.27;21.57;;;10.20;99.90;;;;;;4985302;28;20493;-73
2023/03/21 10:49:35;;;;;;;23.53;20.93;;;10.20;99.90;;;;;;4987789;28;20524;-74
2023/03/21 10:52:29;;;;;;;25.27;20.87;;;10.20;99.90;;;;;;4988391;28;21057;-72
2023/03/21 10:55:08;;;;;;;22.90;20.47;;;10.20;99.90;;;;;;4988574;28;20476;-73
2023/03/21 10:57:37;;;;;;;24.80;20.80;;;10.10;99.90;;;;;;4987815;28;20552;-74
2023/03/21 11:00:13;;;;;;;25.20;21.03;;;10.10;99.90;;;;;;4987977;28;20489;-73
2023/03/21 11:02:42;;;;;;;25.30;20.57;;;10.10;99.90;;;;;;4987938;28;20539;-73
2023/03/21 11:05:19;;;;;;;24.20;20.60;;;10.10;99.90;;;;;;4987721;28;20469;-74
2023/03/21 11:08:00;;;;;;;23.67;20.60;;;10.10;99.90;;;;;;4987466;28;20508;-73
2023/03/21 11:10:30;;;;;;;25.03;21.47;;;10.10;99.90;;;;;;4985477;28;21920;-76
2023/03/21 11:13:03;;;;;;;24.93;20.80;;;10.10;99.90;;;;;;4985490;28;20489;-73
2023/03/21 11:15:33;;;;;;;24.87;21.00;;;10.20;99.90;;;;;;4990638;28;20473;-73
2023/03/21 11:18:14;;;;;;;25.20;21.90;;;10.20;99.90;;;;;;4987838;28;20476;-73
2023/03/21 11:20:48;;;;;;;26.00;22.50;;;10.20;99.90;;;;;;4979952;28;20500;-73
2023/03/21 11:23:18;;;;;;;23.43;20.60;;;10.20;99.90;;;;;;4988689;28;20481;-72
2023/03/21 11:25:49;;;;;;;22.63;20.13;;;10.20;99.90;;;;;;4990127;28;20523;-73
2023/03/21 11:28:22;;;;;;;26.97;23.00;;;10.20;99.90;;;;;;4986958;28;21079;-73
2023/03/21 11:30:53;;;;;;;26.37;22.90;;;10.20;99.90;;;;;;4990210;28;20489;-74
2023/03/21 11:33:23;;;;;;;27.37;22.90;;;10.30;99.90;;;;;;4987485;28;20880;-73
2023/03/21 11:36:03;;;;;;;27.70;23.97;;;10.30;99.90;;;;;;4988637;28;21021;-74
2023/03/21 11:38:36;;;;;;;28.30;23.27;;;10.30;99.90;;;;;;4989099;28;20472;-74
2023/03/21 11:41:06;;;;;;;27.10;23.63;;;10.30;99.90;;;;;;4985757;28;20833;-73
2023/03/21 11:43:36;;;;;;;26.67;23.00;;;10.40;99.90;;;;;;4971194;28;21518;-73
2023/03/21 11:46:07;;;;;;;27.37;23.97;;;10.40;99.90;;;;;;4969713;28;21021;-74
2023/03/21 11:48:39;;;;;;;28.47;23.50;;;10.40;99.90;;;;;;4967895;28;20578;-74
2023/03/21 11:51:17;;;;;;;28.53;24.23;;;10.40;99.90;;;;;;4968368;28;20478;-73
2023/03/21 11:53:51;;;;;;;27.93;22.83;;;10.40;99.90;;;;;;4967682;28;21023;-73
2023/03/21 11:56:25;;;;;;;30.00;25.23;;;10.40;99.90;;;;;;4967939;28;20473;-72
2023/03/21 11:59:09;;;;;;;29.30;24.10;;;10.40;99.90;;;;;;4963830;28;20490;-73
2023/03/21 12:01:44;;;;;;;30.90;25.87;;;10.40;99.90;;;;;;4967000;28;20872;-74
2023/03/21 12:04:20;;;;;;;30.67;24.70;;;10.40;99.90;;;;;;4968191;28;20511;-74
2023/03/21 12:06:54;;;;;;;29.67;24.10;;;10.40;99.90;;;;;;4966193;28;20483;-74
2023/03/21 12:09:31;;;;;;;27.50;24.33;;;10.40;99.90;;;;;;4968099;28;20493;-75
2023/03/21 12:12:09;;;;;;;29.33;23.80;;;10.40;99.90;;;;;;4965929;28;20485;-74
2023/03/21 12:14:47;;;;;;;32.53;24.53;;;10.40;99.90;;;;;;4974764;28;20470;-74
2023/03/21 12:17:25;;;;;;;29.60;24.60;;;10.50;99.90;;;;;;4970247;28;20480;-74
2023/03/21 12:20:08;;;;;;;27.93;23.87;;;10.50;99.90;;;;;;4969276;28;21042;-74
2023/03/21 12:22:45;;;;;;;24.77;21.47;;;10.60;99.90;;;;;;4967771;28;20485;-73
2023/03/21 12:25:19;;;;;;;24.50;21.87;;;10.70;99.90;;;;;;4968147;28;20849;-74
2023/03/21 12:27:59;;;;;;;27.47;22.83;;;10.70;99.90;;;;;;4960065;28;20493;-74
2023/03/21 12:30:51;;;;;;;23.70;21.10;;;10.70;99.90;;;;;;4968322;28;20580;-75
2023/03/21 12:33:40;;;;;;;23.70;21.20;;;10.70;99.90;;;;;;4968967;28;21014;-74
2023/03/21 12:36:17;;;;;;;22.90;20.47;;;10.80;99.90;;;;;;4967673;28;20478;-74
2023/03/21 12:38:56;;;;;;;21.93;19.33;;;10.70;99.90;;;;;;4969651;28;20490;-75
2023/03/21 12:41:28;;;;;;;22.60;19.40;;;10.70;99.90;;;;;;4970367;28;20462;-75
2023/03/21 12:44:01;;;;;;;22.77;20.20;;;10.70;99.90;;;;;;4966886;28;20493;-75
2023/03/21 12:46:35;;;;;;;21.30;19.10;;;10.70;99.90;;;;;;4968330;28;20480;-75
2023/03/21 12:49:08;;;;;;;19.83;17.83;;;10.70;99.90;;;;;;4970181;28;20533;-75
2023/03/21 12:51:41;;;;;;;20.10;18.10;;;10.70;99.90;;;;;;4968662;28;20480;-74
2023/03/21 12:54:16;;;;;;;16.17;14.47;;;10.70;99.90;;;;;;4968299;28;20473;-74
2023/03/21 12:56:52;;;;;;;16.77;15.17;;;10.70;99.90;;;;;;4970300;28;20991;-74
2023/03/21 12:59:27;;;;;;;17.20;15.13;;;10.70;99.90;;;;;;4968549;28;20497;-74
2023/03/21 13:01:59;;;;;;;17.17;15.43;;;10.70;99.90;;;;;;4972304;28;21009;-75